TimeMDT,TemperatureF,Dew PointF,Humidity,Sea Level PressureIn,VisibilityMPH,Wind Direction,Wind SpeedMPH,Gust SpeedMPH,PrecipitationIn,Events,Conditions,WindDirDegrees,DateUTC
12:56 AM,24.1,21.0,88,30.43,10.0,WSW,3.5,-,N/A,,Clear,240,2012-10-06 06:56:00
1:56 AM,26.1,21.0,81,30.42,10.0,SW,4.6,-,N/A,,Clear,230,2012-10-06 07:56:00
2:56 AM,25.0,19.9,81,30.40,10.0,Calm,Calm,-,N/A,,Clear,0,2012-10-06 08:56:00
3:56 AM,26.1,21.0,81,30.38,10.0,Calm,Calm,-,N/A,,Partly Cloudy,0,2012-10-06 09:56:00
4:56 AM,24.1,19.9,84,30.36,10.0,SW,4.6,-,N/A,,Clear,220,2012-10-06 10:56:00
5:56 AM,25.0,19.0,78,30.34,10.0,Calm,Calm,-,N/A,,Clear,0,2012-10-06 11:56:00
6:56 AM,28.0,19.0,69,30.35,10.0,WSW,3.5,-,N/A,,Overcast,250,2012-10-06 12:56:00
7:56 AM,30.2,24.8,80,30.24,10.0,Calm,Calm,-,N/A,,Overcast,0,2012-10-06 13:56:00
8:56 AM,36.0,28.9,76,30.32,10.0,WNW,12.7,-,N/A,,Overcast,300,2012-10-06 14:56:00
9:56 AM,39.9,32.0,73,30.33,10.0,WNW,10.4,-,N/A,,Overcast,300,2012-10-06 15:56:00
10:56 AM,44.1,34.0,68,30.31,10.0,WNW,17.3,23.0,N/A,,Overcast,290,2012-10-06 16:56:00
11:56 AM,46.9,35.1,63,30.30,10.0,NW,24.2,28.8,N/A,,Overcast,310,2012-10-06 17:56:00
12:56 PM,48.0,36.0,63,30.31,10.0,NW,23.0,29.9,N/A,,Mostly Cloudy,310,2012-10-06 18:56:00
1:56 PM,48.9,37.0,64,30.29,10.0,NW,20.7,31.1,N/A,,Overcast,310,2012-10-06 19:56:00
2:56 PM,51.1,37.9,61,30.28,10.0,NW,21.9,28.8,N/A,,Overcast,320,2012-10-06 20:56:00
3:56 PM,51.1,37.0,59,30.27,10.0,NNW,20.7,-,0.00,,Mostly Cloudy,330,2012-10-06 21:56:00
4:56 PM,51.1,37.9,61,30.27,10.0,NNW,19.6,25.3,N/A,,Overcast,330,2012-10-06 22:56:00
5:56 PM,50.0,37.0,61,30.26,10.0,NW,16.1,-,N/A,,Mostly Cloudy,310,2012-10-06 23:56:00
6:56 PM,45.0,36.0,71,30.25,10.0,WNW,12.7,-,N/A,,Partly Cloudy,300,2012-10-07 00:56:00
7:56 PM,44.1,36.0,73,30.24,10.0,WNW,12.7,-,N/A,,Mostly Cloudy,300,2012-10-07 01:56:00
8:56 PM,39.0,34.0,82,30.24,10.0,WNW,11.5,-,N/A,,Partly Cloudy,300,2012-10-07 02:56:00
9:56 PM,37.9,33.1,83,30.23,10.0,WNW,10.4,-,N/A,,Partly Cloudy,290,2012-10-07 03:56:00
10:56 PM,39.0,34.0,82,30.20,10.0,WNW,9.2,-,N/A,,Mostly Cloudy,290,2012-10-07 04:56:00
11:56 PM,36.0,32.0,86,30.19,10.0,Calm,Calm,-,N/A,,Clear,0,2012-10-07 05:56:00